Airfield :
LOGIN :

Register | Disclaimer

   EN    FR    IT 

 










Legend :    VFR   Marginal VFR   IFR   Intensive IFR   Very Intensive IFR
Visi :
Ceiling :
>= 8 km
>= 3000ft
5 to 8 km
1000 to 3000 ft
1500m to 5 km
500 to 1000 ft
800 to 1500m
200 to 500 ft
< 800m
< 200 ft
Symbols :   Thunderstorms  Fog  Heavy snow  Heavy precipitations  Wind > 20 kt
SIGMETs :     Misc.  Thunderstorms  Icing  Turbulence  Mountain Waves  Volcanic Ashes






- Airport Elevation : 1197 ft
- IATA code : SPM


ETAD - Spangdahlem Ab

CURRENT METAR :
  • 021815Z AUTO 24006KT 9999 -DZ SCT026 BKN035 BKN045 OVC055 16/12 A2996 RMK AO2 RAB00E10DZB10 SLP130 CHINO RWY05 $

EXPIRED METARs :
  • 021800Z AUTO 28005KT 9999 -RA SCT035 BKN045 17/12 A2996 RMK AO2 RAB00 SLP130 CHINO RWY05 $
  • 021656Z AUTO 27004KT 9999 FEW018 SCT027 SCT032 BKN080 17/14 A2994 RMK AO2 RAE18 SLP123 P0000 T01660137 CHINO RWY05 $
  • 021556Z AUTO 26007KT 9999 -RA FEW005 SCT012 OVC039 16/16 A2994 RMK AO2 DZB07E09RAB09 SLP123 P0005 T01580156 CHINO RWY05 $

TAF TAF ETAD
Valid from the 02 at 12:00 until the 03 at 18:00 UTC


021200Z 0212/0318 24012KT 8000 -SHRA BKN025 QNH2988INS
BECMG 0217/0218 28007KT 9999 NSW SCT015 BKN020 QNH2991INS
BECMG 0303/0304 06009KT 3600 BR BKN015 QNH2987INS
BECMG 0307/0308 07012KT 9999 NSW SCT013 BKN022 QNH2985INS
BECMG 0313/0314 08010G20KT 9999 SCT020 BKN035 QNH2986INS TX23/0212Z TN09/0304Z



MET'MAP, your aeronautical weather chart ! - Copyright ORBIFLY December 2007 - Disclaimer

ORBIFLY MET'MAP TEAM :

Programming & Development : Alexandra Zaïnal
Concept & original design : Baudouin d'Aumeries
Assistance for programming : Marc-Olivier Méhu
Technical & hardware support : Manuel Goepfert

Contact : metmap@orbifly.com




SOURCES & CREDITS :

   NOAA